sensor_id;sensor_type;location;lat;lon;timestamp;temperature;humidity
68257;DHT22;55069;51.568;4.656;2022-09-21T00:00:24;9.07;90.54
68257;DHT22;55069;51.568;4.656;2022-09-21T00:02:50;9.08;90.42
68257;DHT22;55069;51.568;4.656;2022-09-21T00:05:16;9.05;90.53
68257;DHT22;55069;51.568;4.656;2022-09-21T00:07:42;9.07;90.65
68257;DHT22;55069;51.568;4.656;2022-09-21T00:10:08;9.15;90.61
68257;DHT22;55069;51.568;4.656;2022-09-21T00:12:34;9.08;90.87
68257;DHT22;55069;51.568;4.656;2022-09-21T00:15:01;9.14;90.84
68257;DHT22;55069;51.568;4.656;2022-09-21T00:17:27;9.11;90.82
68257;DHT22;55069;51.568;4.656;2022-09-21T00:19:53;9.03;91.36
68257;DHT22;55069;51.568;4.656;2022-09-21T00:22:18;9.10;91.35
68257;DHT22;55069;51.568;4.656;2022-09-21T00:24:44;9.07;91.48
68257;DHT22;55069;51.568;4.656;2022-09-21T00:27:10;9.14;91.36
68257;DHT22;55069;51.568;4.656;2022-09-21T00:29:35;9.19;91.28
68257;DHT22;55069;51.568;4.656;2022-09-21T00:32:01;9.25;91.20
68257;DHT22;55069;51.568;4.656;2022-09-21T00:34:27;9.29;91.08
68257;DHT22;55069;51.568;4.656;2022-09-21T00:36:52;9.29;91.01
68257;DHT22;55069;51.568;4.656;2022-09-21T00:39:18;9.34;91.00
68257;DHT22;55069;51.568;4.656;2022-09-21T00:41:44;9.38;90.96
68257;DHT22;55069;51.568;4.656;2022-09-21T00:44:39;9.38;91.01
68257;DHT22;55069;51.568;4.656;2022-09-21T00:49:52;9.40;90.90
68257;DHT22;55069;51.568;4.656;2022-09-21T00:52:21;9.40;90.99
68257;DHT22;55069;51.568;4.656;2022-09-21T00:54:50;9.46;90.95
68257;DHT22;55069;51.568;4.656;2022-09-21T00:57:17;9.48;90.89
68257;DHT22;55069;51.568;4.656;2022-09-21T00:59:45;9.45;90.75
68257;DHT22;55069;51.568;4.656;2022-09-21T01:02:11;9.42;90.85
68257;DHT22;55069;51.568;4.656;2022-09-21T01:04:37;9.45;90.96
68257;DHT22;55069;51.568;4.656;2022-09-21T01:07:08;9.42;90.92
68257;DHT22;55069;51.568;4.656;2022-09-21T01:09:38;9.42;91.03
68257;DHT22;55069;51.568;4.656;2022-09-21T01:14:49;9.45;90.96
68257;DHT22;55069;51.568;4.656;2022-09-21T01:20:29;9.40;91.25
68257;DHT22;55069;51.568;4.656;2022-09-21T01:25:52;9.46;91.26
68257;DHT22;55069;51.568;4.656;2022-09-21T01:29:05;9.48;91.29
68257;DHT22;55069;51.568;4.656;2022-09-21T01:34:27;9.46;91.41
68257;DHT22;55069;51.568;4.656;2022-09-21T01:36:56;9.50;91.79
68257;DHT22;55069;51.568;4.656;2022-09-21T01:39:24;9.53;91.57
68257;DHT22;55069;51.568;4.656;2022-09-21T01:41:51;9.55;91.46
68257;DHT22;55069;51.568;4.656;2022-09-21T01:44:19;9.53;91.54
68257;DHT22;55069;51.568;4.656;2022-09-21T01:46:46;9.55;91.66
68257;DHT22;55069;51.568;4.656;2022-09-21T01:49:26;9.59;91.51
68257;DHT22;55069;51.568;4.656;2022-09-21T01:52:02;9.55;91.39
68257;DHT22;55069;51.568;4.656;2022-09-21T01:54:35;9.55;91.33
68257;DHT22;55069;51.568;4.656;2022-09-21T01:59:59;9.43;91.50
68257;DHT22;55069;51.568;4.656;2022-09-21T02:02:41;9.39;91.57
68257;DHT22;55069;51.568;4.656;2022-09-21T02:05:09;9.39;91.72
68257;DHT22;55069;51.568;4.656;2022-09-21T02:07:36;9.36;91.80
68257;DHT22;55069;51.568;4.656;2022-09-21T02:10:06;9.34;91.79
68257;DHT22;55069;51.568;4.656;2022-09-21T02:12:33;9.28;91.99
68257;DHT22;55069;51.568;4.656;2022-09-21T02:15:00;9.24;91.87
68257;DHT22;55069;51.568;4.656;2022-09-21T02:18:19;9.14;91.98
68257;DHT22;55069;51.568;4.656;2022-09-21T02:20:48;9.12;92.04
68257;DHT22;55069;51.568;4.656;2022-09-21T02:23:27;9.05;92.07
68257;DHT22;55069;51.568;4.656;2022-09-21T02:31:25;8.81;92.21
68257;DHT22;55069;51.568;4.656;2022-09-21T02:33:57;8.76;92.24
68257;DHT22;55069;51.568;4.656;2022-09-21T02:36:44;8.69;92.27
68257;DHT22;55069;51.568;4.656;2022-09-21T02:39:16;8.64;92.44
68257;DHT22;55069;51.568;4.656;2022-09-21T02:41:56;8.57;92.53
68257;DHT22;55069;51.568;4.656;2022-09-21T02:44:38;8.54;92.63
68257;DHT22;55069;51.568;4.656;2022-09-21T02:47:16;8.50;92.82
68257;DHT22;55069;51.568;4.656;2022-09-21T02:49:48;8.52;92.86
68257;DHT22;55069;51.568;4.656;2022-09-21T02:52:17;8.45;92.88
68257;DHT22;55069;51.568;4.656;2022-09-21T02:54:47;8.43;92.98
68257;DHT22;55069;51.568;4.656;2022-09-21T02:57:16;8.35;92.97
68257;DHT22;55069;51.568;4.656;2022-09-21T02:59:43;8.35;93.08
68257;DHT22;55069;51.568;4.656;2022-09-21T03:02:09;8.26;93.20
68257;DHT22;55069;51.568;4.656;2022-09-21T03:04:38;8.26;93.25
68257;DHT22;55069;51.568;4.656;2022-09-21T03:07:06;8.28;93.25
68257;DHT22;55069;51.568;4.656;2022-09-21T03:09:32;8.33;93.20
68257;DHT22;55069;51.568;4.656;2022-09-21T03:11:57;8.29;93.04
68257;DHT22;55069;51.568;4.656;2022-09-21T03:14:23;8.28;93.01
68257;DHT22;55069;51.568;4.656;2022-09-21T03:16:48;8.24;93.04
68257;DHT22;55069;51.568;4.656;2022-09-21T03:19:14;8.18;93.07
68257;DHT22;55069;51.568;4.656;2022-09-21T03:21:40;8.21;93.14
68257;DHT22;55069;51.568;4.656;2022-09-21T03:24:06;8.24;93.15
68257;DHT22;55069;51.568;4.656;2022-09-21T03:26:32;8.21;93.04
68257;DHT22;55069;51.568;4.656;2022-09-21T03:28:58;8.28;93.15
68257;DHT22;55069;51.568;4.656;2022-09-21T03:31:24;8.25;93.16
68257;DHT22;55069;51.568;4.656;2022-09-21T03:33:49;8.25;93.62
68257;DHT22;55069;51.568;4.656;2022-09-21T03:36:15;8.24;93.40
68257;DHT22;55069;51.568;4.656;2022-09-21T03:38:40;8.20;93.39
68257;DHT22;55069;51.568;4.656;2022-09-21T03:41:07;8.22;93.42
68257;DHT22;55069;51.568;4.656;2022-09-21T03:43:32;8.22;93.22
68257;DHT22;55069;51.568;4.656;2022-09-21T03:45:58;8.21;93.18
68257;DHT22;55069;51.568;4.656;2022-09-21T03:48:23;8.16;93.27
68257;DHT22;55069;51.568;4.656;2022-09-21T03:50:49;8.09;93.24
68257;DHT22;55069;51.568;4.656;2022-09-21T03:53:15;8.11;93.18
68257;DHT22;55069;51.568;4.656;2022-09-21T03:55:41;8.05;93.11
68257;DHT22;55069;51.568;4.656;2022-09-21T03:58:07;7.95;93.06
68257;DHT22;55069;51.568;4.656;2022-09-21T04:00:33;7.97;93.20
68257;DHT22;55069;51.568;4.656;2022-09-21T04:02:59;7.91;93.35
68257;DHT22;55069;51.568;4.656;2022-09-21T04:05:24;7.91;93.41
68257;DHT22;55069;51.568;4.656;2022-09-21T04:07:50;7.88;93.40
68257;DHT22;55069;51.568;4.656;2022-09-21T04:10:18;7.84;93.47
68257;DHT22;55069;51.568;4.656;2022-09-21T04:12:45;7.83;93.37
68257;DHT22;55069;51.568;4.656;2022-09-21T04:15:16;7.75;93.46
68257;DHT22;55069;51.568;4.656;2022-09-21T04:17:49;7.74;93.55
68257;DHT22;55069;51.568;4.656;2022-09-21T04:20:15;7.78;93.64
68257;DHT22;55069;51.568;4.656;2022-09-21T04:22:40;7.77;93.80
68257;DHT22;55069;51.568;4.656;2022-09-21T04:25:06;7.77;93.78
68257;DHT22;55069;51.568;4.656;2022-09-21T04:27:32;7.74;93.69
68257;DHT22;55069;51.568;4.656;2022-09-21T04:29:59;7.70;93.68
68257;DHT22;55069;51.568;4.656;2022-09-21T04:32:25;7.70;93.78
68257;DHT22;55069;51.568;4.656;2022-09-21T04:34:50;7.67;93.73
68257;DHT22;55069;51.568;4.656;2022-09-21T04:37:16;7.64;93.71
68257;DHT22;55069;51.568;4.656;2022-09-21T04:39:42;7.64;93.70
68257;DHT22;55069;51.568;4.656;2022-09-21T04:42:08;7.62;93.62
68257;DHT22;55069;51.568;4.656;2022-09-21T04:44:34;7.60;93.55
68257;DHT22;55069;51.568;4.656;2022-09-21T04:46:59;7.57;93.49
68257;DHT22;55069;51.568;4.656;2022-09-21T04:49:25;7.54;93.41
68257;DHT22;55069;51.568;4.656;2022-09-21T04:51:51;7.52;93.42
68257;DHT22;55069;51.568;4.656;2022-09-21T04:54:16;7.50;93.41
68257;DHT22;55069;51.568;4.656;2022-09-21T04:56:42;7.47;93.43
68257;DHT22;55069;51.568;4.656;2022-09-21T04:59:08;7.47;93.48
68257;DHT22;55069;51.568;4.656;2022-09-21T05:01:33;7.43;93.51
68257;DHT22;55069;51.568;4.656;2022-09-21T05:03:59;7.42;93.54
68257;DHT22;55069;51.568;4.656;2022-09-21T05:06:31;7.42;93.61
68257;DHT22;55069;51.568;4.656;2022-09-21T05:08:57;7.39;93.62
68257;DHT22;55069;51.568;4.656;2022-09-21T05:11:41;7.36;93.58
68257;DHT22;55069;51.568;4.656;2022-09-21T05:14:07;7.36;93.66
68257;DHT22;55069;51.568;4.656;2022-09-21T05:16:33;7.35;93.69
68257;DHT22;55069;51.568;4.656;2022-09-21T05:18:59;7.32;93.64
68257;DHT22;55069;51.568;4.656;2022-09-21T05:21:25;7.33;93.64
68257;DHT22;55069;51.568;4.656;2022-09-21T05:23:51;7.32;93.64
68257;DHT22;55069;51.568;4.656;2022-09-21T05:26:17;7.32;93.65
68257;DHT22;55069;51.568;4.656;2022-09-21T05:28:43;7.35;93.67
68257;DHT22;55069;51.568;4.656;2022-09-21T05:33:51;7.35;93.58
68257;DHT22;55069;51.568;4.656;2022-09-21T05:38:46;7.32;93.59
68257;DHT22;55069;51.568;4.656;2022-09-21T05:41:12;7.32;93.54
68257;DHT22;55069;51.568;4.656;2022-09-21T05:43:38;7.37;93.64
68257;DHT22;55069;51.568;4.656;2022-09-21T05:46:20;7.40;93.67
68257;DHT22;55069;51.568;4.656;2022-09-21T05:48:59;7.39;93.70
68257;DHT22;55069;51.568;4.656;2022-09-21T05:51:54;7.42;93.79
68257;DHT22;55069;51.568;4.656;2022-09-21T05:57:05;7.56;93.85
68257;DHT22;55069;51.568;4.656;2022-09-21T06:02:17;7.63;93.58
68257;DHT22;55069;51.568;4.656;2022-09-21T06:04:46;7.70;93.54
68257;DHT22;55069;51.568;4.656;2022-09-21T06:07:12;7.78;93.40
68257;DHT22;55069;51.568;4.656;2022-09-21T06:09:37;7.84;93.57
68257;DHT22;55069;51.568;4.656;2022-09-21T06:12:03;7.98;93.38
68257;DHT22;55069;51.568;4.656;2022-09-21T06:14:28;8.02;93.44
68257;DHT22;55069;51.568;4.656;2022-09-21T06:16:54;8.11;93.34
68257;DHT22;55069;51.568;4.656;2022-09-21T06:19:20;8.16;93.08
68257;DHT22;55069;51.568;4.656;2022-09-21T06:21:45;8.24;92.93
68257;DHT22;55069;51.568;4.656;2022-09-21T06:24:11;8.33;93.05
68257;DHT22;55069;51.568;4.656;2022-09-21T06:26:37;8.39;92.99
68257;DHT22;55069;51.568;4.656;2022-09-21T06:29:02;8.45;92.85
68257;DHT22;55069;51.568;4.656;2022-09-21T06:31:28;8.52;92.79
68257;DHT22;55069;51.568;4.656;2022-09-21T06:33:54;8.53;92.90
68257;DHT22;55069;51.568;4.656;2022-09-21T06:36:19;8.63;92.92
68257;DHT22;55069;51.568;4.656;2022-09-21T06:38:45;8.69;93.03
68257;DHT22;55069;51.568;4.656;2022-09-21T06:41:11;8.74;93.10
68257;DHT22;55069;51.568;4.656;2022-09-21T06:43:36;8.81;93.09
68257;DHT22;55069;51.568;4.656;2022-09-21T06:46:02;8.87;93.49
68257;DHT22;55069;51.568;4.656;2022-09-21T06:48:29;8.87;93.49
68257;DHT22;55069;51.568;4.656;2022-09-21T06:50:57;8.96;93.26
68257;DHT22;55069;51.568;4.656;2022-09-21T06:53:27;9.05;93.50
68257;DHT22;55069;51.568;4.656;2022-09-21T06:55:53;9.17;93.99
68257;DHT22;55069;51.568;4.656;2022-09-21T06:58:18;9.22;93.46
68257;DHT22;55069;51.568;4.656;2022-09-21T07:00:44;9.31;93.45
68257;DHT22;55069;51.568;4.656;2022-09-21T07:03:11;9.40;93.47
68257;DHT22;55069;51.568;4.656;2022-09-21T07:05:43;9.55;93.81
68257;DHT22;55069;51.568;4.656;2022-09-21T07:08:09;9.63;93.73
68257;DHT22;55069;51.568;4.656;2022-09-21T07:10:34;9.82;93.94
68257;DHT22;55069;51.568;4.656;2022-09-21T07:13:04;9.91;93.79
68257;DHT22;55069;51.568;4.656;2022-09-21T07:15:31;10.00;93.18
68257;DHT22;55069;51.568;4.656;2022-09-21T07:17:57;10.10;93.52
68257;DHT22;55069;51.568;4.656;2022-09-21T07:20:23;10.18;92.73
68257;DHT22;55069;51.568;4.656;2022-09-21T07:22:49;10.37;93.54
68257;DHT22;55069;51.568;4.656;2022-09-21T07:25:15;10.55;93.48
68257;DHT22;55069;51.568;4.656;2022-09-21T07:27:40;10.68;92.63
68257;DHT22;55069;51.568;4.656;2022-09-21T07:30:07;10.73;92.75
68257;DHT22;55069;51.568;4.656;2022-09-21T07:32:33;10.79;92.52
68257;DHT22;55069;51.568;4.656;2022-09-21T07:34:59;10.82;92.65
68257;DHT22;55069;51.568;4.656;2022-09-21T07:37:25;10.83;92.26
68257;DHT22;55069;51.568;4.656;2022-09-21T07:39:51;10.90;92.38
68257;DHT22;55069;51.568;4.656;2022-09-21T07:42:18;10.92;92.23
68257;DHT22;55069;51.568;4.656;2022-09-21T07:44:45;10.97;92.04
68257;DHT22;55069;51.568;4.656;2022-09-21T07:47:11;11.10;90.03
68257;DHT22;55069;51.568;4.656;2022-09-21T07:49:38;11.11;90.86
68257;DHT22;55069;51.568;4.656;2022-09-21T07:52:04;11.18;90.99
68257;DHT22;55069;51.568;4.656;2022-09-21T07:54:30;11.28;90.58
68257;DHT22;55069;51.568;4.656;2022-09-21T07:56:58;11.44;90.43
68257;DHT22;55069;51.568;4.656;2022-09-21T07:59:42;11.52;89.71
68257;DHT22;55069;51.568;4.656;2022-09-21T08:02:07;11.65;88.63
68257;DHT22;55069;51.568;4.656;2022-09-21T08:04:33;11.78;88.13
68257;DHT22;55069;51.568;4.656;2022-09-21T08:06:58;11.92;88.81
68257;DHT22;55069;51.568;4.656;2022-09-21T08:09:24;12.03;88.87
68257;DHT22;55069;51.568;4.656;2022-09-21T08:11:50;12.14;88.40
68257;DHT22;55069;51.568;4.656;2022-09-21T08:14:16;12.20;88.22
68257;DHT22;55069;51.568;4.656;2022-09-21T08:16:46;12.33;86.46
68257;DHT22;55069;51.568;4.656;2022-09-21T08:19:15;12.44;86.44
68257;DHT22;55069;51.568;4.656;2022-09-21T08:21:42;12.58;87.33
68257;DHT22;55069;51.568;4.656;2022-09-21T08:24:08;12.65;87.15
68257;DHT22;55069;51.568;4.656;2022-09-21T08:26:34;12.75;86.96
68257;DHT22;55069;51.568;4.656;2022-09-21T08:29:00;12.84;87.13
68257;DHT22;55069;51.568;4.656;2022-09-21T08:31:27;12.91;86.45
68257;DHT22;55069;51.568;4.656;2022-09-21T08:33:54;13.08;84.89
68257;DHT22;55069;51.568;4.656;2022-09-21T08:36:19;13.22;83.97
68257;DHT22;55069;51.568;4.656;2022-09-21T08:38:45;13.40;82.42
68257;DHT22;55069;51.568;4.656;2022-09-21T08:43:50;13.64;81.67
68257;DHT22;55069;51.568;4.656;2022-09-21T08:46:21;13.68;80.78
68257;DHT22;55069;51.568;4.656;2022-09-21T08:49:01;13.84;82.28
68257;DHT22;55069;51.568;4.656;2022-09-21T08:51:35;13.97;80.86
68257;DHT22;55069;51.568;4.656;2022-09-21T08:54:26;14.05;77.43
68257;DHT22;55069;51.568;4.656;2022-09-21T08:56:53;14.15;79.05
68257;DHT22;55069;51.568;4.656;2022-09-21T08:59:20;14.28;79.46
68257;DHT22;55069;51.568;4.656;2022-09-21T09:01:53;14.33;76.77
68257;DHT22;55069;51.568;4.656;2022-09-21T09:08:09;14.46;76.39
68257;DHT22;55069;51.568;4.656;2022-09-21T09:10:35;14.67;77.18
68257;DHT22;55069;51.568;4.656;2022-09-21T09:15:59;14.80;77.25
68257;DHT22;55069;51.568;4.656;2022-09-21T09:18:38;14.80;73.83
68257;DHT22;55069;51.568;4.656;2022-09-21T09:21:30;14.74;73.46
68257;DHT22;55069;51.568;4.656;2022-09-21T09:24:20;14.84;73.00
68257;DHT22;55069;51.568;4.656;2022-09-21T09:27:16;15.01;70.42
68257;DHT22;55069;51.568;4.656;2022-09-21T09:32:30;15.01;71.04
68257;DHT22;55069;51.568;4.656;2022-09-21T09:37:50;15.27;68.18
68257;DHT22;55069;51.568;4.656;2022-09-21T09:40:28;15.39;68.53
68257;DHT22;55069;51.568;4.656;2022-09-21T09:43:14;15.50;68.31
68257;DHT22;55069;51.568;4.656;2022-09-21T09:45:50;15.70;68.30
68257;DHT22;55069;51.568;4.656;2022-09-21T09:51:18;15.94;68.91
68257;DHT22;55069;51.568;4.656;2022-09-21T09:53:44;16.05;67.47
68257;DHT22;55069;51.568;4.656;2022-09-21T09:56:11;16.08;64.26
68257;DHT22;55069;51.568;4.656;2022-09-21T09:58:43;16.25;66.10
68257;DHT22;55069;51.568;4.656;2022-09-21T10:01:41;16.49;66.10
68257;DHT22;55069;51.568;4.656;2022-09-21T10:04:12;16.63;62.12
68257;DHT22;55069;51.568;4.656;2022-09-21T10:06:38;16.35;61.35
68257;DHT22;55069;51.568;4.656;2022-09-21T10:09:31;16.58;58.80
68257;DHT22;55069;51.568;4.656;2022-09-21T10:14:47;16.73;61.77
68257;DHT22;55069;51.568;4.656;2022-09-21T10:17:15;16.99;62.19
68257;DHT22;55069;51.568;4.656;2022-09-21T10:19:41;16.89;60.45
68257;DHT22;55069;51.568;4.656;2022-09-21T10:22:15;17.18;62.16
68257;DHT22;55069;51.568;4.656;2022-09-21T10:24:48;17.62;63.66
68257;DHT22;55069;51.568;4.656;2022-09-21T10:27:24;17.58;58.47
68257;DHT22;55069;51.568;4.656;2022-09-21T10:29:50;17.45;57.54
68257;DHT22;55069;51.568;4.656;2022-09-21T10:37:35;18.18;61.53
68257;DHT22;55069;51.568;4.656;2022-09-21T10:42:54;18.38;58.43
68257;DHT22;55069;51.568;4.656;2022-09-21T10:45:27;18.50;54.74
68257;DHT22;55069;51.568;4.656;2022-09-21T10:48:07;18.81;52.88
68257;DHT22;55069;51.568;4.656;2022-09-21T10:50:36;18.73;54.07
68257;DHT22;55069;51.568;4.656;2022-09-21T10:55:37;18.84;50.89
68257;DHT22;55069;51.568;4.656;2022-09-21T10:58:11;18.58;52.05
68257;DHT22;55069;51.568;4.656;2022-09-21T11:00:45;18.82;53.20
68257;DHT22;55069;51.568;4.656;2022-09-21T11:06:27;18.55;52.04
68257;DHT22;55069;51.568;4.656;2022-09-21T11:09:05;18.96;55.66
68257;DHT22;55069;51.568;4.656;2022-09-21T11:14:37;19.22;54.53
68257;DHT22;55069;51.568;4.656;2022-09-21T11:22:37;18.91;51.16
68257;DHT22;55069;51.568;4.656;2022-09-21T11:27:41;18.79;50.80
68257;DHT22;55069;51.568;4.656;2022-09-21T11:38:30;19.36;49.81
68257;DHT22;55069;51.568;4.656;2022-09-21T11:52:03;19.68;47.97
68257;DHT22;55069;51.568;4.656;2022-09-21T11:54:55;19.68;49.93
68257;DHT22;55069;51.568;4.656;2022-09-21T11:57:38;19.99;48.47
68257;DHT22;55069;51.568;4.656;2022-09-21T12:00:12;20.16;50.84
68257;DHT22;55069;51.568;4.656;2022-09-21T12:03:02;20.15;50.16
68257;DHT22;55069;51.568;4.656;2022-09-21T12:08:58;19.39;51.69
68257;DHT22;55069;51.568;4.656;2022-09-21T12:17:16;18.34;51.16
68257;DHT22;55069;51.568;4.656;2022-09-21T12:22:20;18.75;50.99
68257;DHT22;55069;51.568;4.656;2022-09-21T12:24:50;18.92;49.91
68257;DHT22;55069;51.568;4.656;2022-09-21T12:27:30;18.88;50.96
68257;DHT22;55069;51.568;4.656;2022-09-21T12:30:22;18.78;52.22
68257;DHT22;55069;51.568;4.656;2022-09-21T12:32:49;18.96;53.00
68257;DHT22;55069;51.568;4.656;2022-09-21T12:38:30;19.22;49.63
68257;DHT22;55069;51.568;4.656;2022-09-21T12:43:56;19.70;48.03
68257;DHT22;55069;51.568;4.656;2022-09-21T12:46:36;19.79;48.63
68257;DHT22;55069;51.568;4.656;2022-09-21T12:49:10;19.70;51.25
68257;DHT22;55069;51.568;4.656;2022-09-21T12:51:44;19.94;50.65
68257;DHT22;55069;51.568;4.656;2022-09-21T12:59:49;20.19;47.47
68257;DHT22;55069;51.568;4.656;2022-09-21T13:02:30;19.84;49.27
68257;DHT22;55069;51.568;4.656;2022-09-21T13:15:49;18.91;50.86
68257;DHT22;55069;51.568;4.656;2022-09-21T13:18:25;18.84;54.30
68257;DHT22;55069;51.568;4.656;2022-09-21T13:20:53;18.61;50.27
68257;DHT22;55069;51.568;4.656;2022-09-21T13:23:40;18.79;55.14
68257;DHT22;55069;51.568;4.656;2022-09-21T13:26:10;18.88;50.26
68257;DHT22;55069;51.568;4.656;2022-09-21T13:39:47;19.08;51.51
68257;DHT22;55069;51.568;4.656;2022-09-21T13:47:40;19.40;47.81
68257;DHT22;55069;51.568;4.656;2022-09-21T13:53:02;19.71;48.89
68257;DHT22;55069;51.568;4.656;2022-09-21T13:55:34;19.77;48.89
68257;DHT22;55069;51.568;4.656;2022-09-21T13:58:31;19.75;52.22
68257;DHT22;55069;51.568;4.656;2022-09-21T14:01:29;19.98;47.38
68257;DHT22;55069;51.568;4.656;2022-09-21T14:03:57;19.63;48.38
68257;DHT22;55069;51.568;4.656;2022-09-21T14:06:29;19.81;51.66
68257;DHT22;55069;51.568;4.656;2022-09-21T14:09:06;19.91;49.54
68257;DHT22;55069;51.568;4.656;2022-09-21T14:11:42;19.50;48.92
68257;DHT22;55069;51.568;4.656;2022-09-21T14:14:29;19.78;51.78
68257;DHT22;55069;51.568;4.656;2022-09-21T14:16:58;19.73;51.25
68257;DHT22;55069;51.568;4.656;2022-09-21T14:27:40;19.06;53.53
68257;DHT22;55069;51.568;4.656;2022-09-21T14:30:21;18.69;52.05
68257;DHT22;55069;51.568;4.656;2022-09-21T14:35:21;18.82;53.79
68257;DHT22;55069;51.568;4.656;2022-09-21T14:37:54;18.88;55.41
68257;DHT22;55069;51.568;4.656;2022-09-21T14:40:25;18.82;54.83
68257;DHT22;55069;51.568;4.656;2022-09-21T14:42:53;18.79;51.06
68257;DHT22;55069;51.568;4.656;2022-09-21T14:45:25;18.62;52.39
68257;DHT22;55069;51.568;4.656;2022-09-21T14:48:12;18.64;50.82
68257;DHT22;55069;51.568;4.656;2022-09-21T14:58:33;18.75;55.19
68257;DHT22;55069;51.568;4.656;2022-09-21T15:04:21;18.73;51.97
68257;DHT22;55069;51.568;4.656;2022-09-21T15:07:30;18.47;53.68
68257;DHT22;55069;51.568;4.656;2022-09-21T15:11:08;18.55;52.61
68257;DHT22;55069;51.568;4.656;2022-09-21T15:13:35;18.65;54.46
68257;DHT22;55069;51.568;4.656;2022-09-21T15:18:49;18.52;53.85
68257;DHT22;55069;51.568;4.656;2022-09-21T15:21:26;18.85;58.12
68257;DHT22;55069;51.568;4.656;2022-09-21T15:23:52;18.95;53.90
68257;DHT22;55069;51.568;4.656;2022-09-21T15:26:21;18.61;49.84
68257;DHT22;55069;51.568;4.656;2022-09-21T15:29:03;18.73;54.38
68257;DHT22;55069;51.568;4.656;2022-09-21T15:31:33;18.88;47.85
68257;DHT22;55069;51.568;4.656;2022-09-21T15:34:00;18.88;50.20
68257;DHT22;55069;51.568;4.656;2022-09-21T15:36:29;18.60;50.94
68257;DHT22;55069;51.568;4.656;2022-09-21T15:38:55;18.87;49.08
68257;DHT22;55069;51.568;4.656;2022-09-21T15:44:21;19.00;49.54
68257;DHT22;55069;51.568;4.656;2022-09-21T15:46:50;19.50;51.33
68257;DHT22;55069;51.568;4.656;2022-09-21T15:49:18;19.79;51.56
68257;DHT22;55069;51.568;4.656;2022-09-21T15:51:50;20.01;50.16
68257;DHT22;55069;51.568;4.656;2022-09-21T15:56:54;20.44;46.88
68257;DHT22;55069;51.568;4.656;2022-09-21T15:59:20;20.40;46.25
68257;DHT22;55069;51.568;4.656;2022-09-21T16:01:57;20.52;46.80
68257;DHT22;55069;51.568;4.656;2022-09-21T16:04:26;20.15;45.49
68257;DHT22;55069;51.568;4.656;2022-09-21T16:07:06;20.08;46.08
68257;DHT22;55069;51.568;4.656;2022-09-21T16:09:46;20.37;52.08
68257;DHT22;55069;51.568;4.656;2022-09-21T16:14:49;20.12;46.14
68257;DHT22;55069;51.568;4.656;2022-09-21T16:17:26;19.88;50.03
68257;DHT22;55069;51.568;4.656;2022-09-21T16:24:59;20.01;47.80
68257;DHT22;55069;51.568;4.656;2022-09-21T16:27:29;20.21;47.60
68257;DHT22;55069;51.568;4.656;2022-09-21T16:29:56;19.68;46.89
68257;DHT22;55069;51.568;4.656;2022-09-21T16:32:33;19.60;49.80
68257;DHT22;55069;51.568;4.656;2022-09-21T16:35:22;19.57;50.41
68257;DHT22;55069;51.568;4.656;2022-09-21T16:37:53;19.96;48.54
68257;DHT22;55069;51.568;4.656;2022-09-21T16:40:22;19.92;46.91
68257;DHT22;55069;51.568;4.656;2022-09-21T16:42:48;20.09;51.31
68257;DHT22;55069;51.568;4.656;2022-09-21T16:45:31;19.73;52.28
68257;DHT22;55069;51.568;4.656;2022-09-21T16:47:59;19.61;52.43
68257;DHT22;55069;51.568;4.656;2022-09-21T16:50:27;19.24;50.73
68257;DHT22;55069;51.568;4.656;2022-09-21T16:52:52;18.69;51.82
68257;DHT22;55069;51.568;4.656;2022-09-21T16:55:19;18.68;52.80
68257;DHT22;55069;51.568;4.656;2022-09-21T16:57:44;18.30;53.78
68257;DHT22;55069;51.568;4.656;2022-09-21T17:00:15;17.69;53.34
68257;DHT22;55069;51.568;4.656;2022-09-21T17:02:46;17.26;58.93
68257;DHT22;55069;51.568;4.656;2022-09-21T17:05:13;17.10;61.14
68257;DHT22;55069;51.568;4.656;2022-09-21T17:07:55;16.89;59.80
68257;DHT22;55069;51.568;4.656;2022-09-21T17:10:29;16.65;59.25
68257;DHT22;55069;51.568;4.656;2022-09-21T17:12:56;16.55;63.11
68257;DHT22;55069;51.568;4.656;2022-09-21T17:15:24;16.41;63.39
68257;DHT22;55069;51.568;4.656;2022-09-21T17:17:50;16.41;66.28
68257;DHT22;55069;51.568;4.656;2022-09-21T17:20:36;16.22;64.54
68257;DHT22;55069;51.568;4.656;2022-09-21T17:23:03;16.08;65.77
68257;DHT22;55069;51.568;4.656;2022-09-21T17:25:30;16.05;63.26
68257;DHT22;55069;51.568;4.656;2022-09-21T17:27:57;16.08;67.46
68257;DHT22;55069;51.568;4.656;2022-09-21T17:30:24;16.05;69.09
68257;DHT22;55069;51.568;4.656;2022-09-21T17:32:50;15.98;68.91
68257;DHT22;55069;51.568;4.656;2022-09-21T17:35:28;15.90;69.28
68257;DHT22;55069;51.568;4.656;2022-09-21T17:37:56;15.80;70.37
68257;DHT22;55069;51.568;4.656;2022-09-21T17:40:22;15.70;69.70
68257;DHT22;55069;51.568;4.656;2022-09-21T17:42:49;15.77;71.14
68257;DHT22;55069;51.568;4.656;2022-09-21T17:45:39;15.84;70.09
68257;DHT22;55069;51.568;4.656;2022-09-21T17:48:17;15.83;70.20
68257;DHT22;55069;51.568;4.656;2022-09-21T17:50:43;15.79;69.40
68257;DHT22;55069;51.568;4.656;2022-09-21T17:53:09;15.70;68.19
68257;DHT22;55069;51.568;4.656;2022-09-21T17:55:57;15.48;68.48
68257;DHT22;55069;51.568;4.656;2022-09-21T18:03:32;14.91;69.62
68257;DHT22;55069;51.568;4.656;2022-09-21T18:06:00;14.83;70.88
68257;DHT22;55069;51.568;4.656;2022-09-21T18:08:27;14.76;70.87
68257;DHT22;55069;51.568;4.656;2022-09-21T18:22:05;14.30;73.46
68257;DHT22;55069;51.568;4.656;2022-09-21T18:24:35;14.22;73.80
68257;DHT22;55069;51.568;4.656;2022-09-21T18:27:01;14.12;73.96
68257;DHT22;55069;51.568;4.656;2022-09-21T18:29:29;14.02;74.57
68257;DHT22;55069;51.568;4.656;2022-09-21T18:43:06;13.66;76.26
68257;DHT22;55069;51.568;4.656;2022-09-21T18:45:46;13.61;76.33
68257;DHT22;55069;51.568;4.656;2022-09-21T18:56:10;13.30;77.01
68257;DHT22;55069;51.568;4.656;2022-09-21T18:58:37;13.26;77.26
68257;DHT22;55069;51.568;4.656;2022-09-21T19:01:04;13.26;77.32
68257;DHT22;55069;51.568;4.656;2022-09-21T19:03:30;13.16;77.48
68257;DHT22;55069;51.568;4.656;2022-09-21T19:09:20;13.09;78.04
68257;DHT22;55069;51.568;4.656;2022-09-21T19:19:55;12.79;78.58
68257;DHT22;55069;51.568;4.656;2022-09-21T19:22:58;12.81;78.50
68257;DHT22;55069;51.568;4.656;2022-09-21T19:25:36;12.71;78.83
68257;DHT22;55069;51.568;4.656;2022-09-21T19:31:10;12.71;78.81
68257;DHT22;55069;51.568;4.656;2022-09-21T19:33:36;12.62;79.10
68257;DHT22;55069;51.568;4.656;2022-09-21T19:36:03;12.58;79.16
68257;DHT22;55069;51.568;4.656;2022-09-21T19:38:29;12.50;79.32
68257;DHT22;55069;51.568;4.656;2022-09-21T19:41:04;12.40;79.48
68257;DHT22;55069;51.568;4.656;2022-09-21T19:49:16;12.27;79.90
68257;DHT22;55069;51.568;4.656;2022-09-21T19:51:46;12.20;80.21
68257;DHT22;55069;51.568;4.656;2022-09-21T19:54:14;12.17;80.36
68257;DHT22;55069;51.568;4.656;2022-09-21T19:56:59;12.13;80.42
68257;DHT22;55069;51.568;4.656;2022-09-21T19:59:43;12.10;80.37
68257;DHT22;55069;51.568;4.656;2022-09-21T20:02:20;12.07;80.47
68257;DHT22;55069;51.568;4.656;2022-09-21T20:05:06;12.02;80.57